createdAt,value
2019-04-26T00:00:43.337Z,24.70
2019-04-26T00:01:43.277Z,24.67
2019-04-26T00:02:43.273Z,24.71
2019-04-26T00:03:43.278Z,24.64
2019-04-26T00:04:43.284Z,24.60
2019-04-26T00:05:43.262Z,24.68
2019-04-26T00:06:43.263Z,24.64
2019-04-26T00:07:43.245Z,24.71
2019-04-26T00:08:43.206Z,24.71
2019-04-26T00:09:43.216Z,24.82
2019-04-26T00:10:43.239Z,24.71
2019-04-26T00:11:43.175Z,24.71
2019-04-26T00:12:43.177Z,24.61
2019-04-26T00:13:43.160Z,24.71
2019-04-26T00:14:43.157Z,24.70
2019-04-26T00:15:43.145Z,24.67
2019-04-26T00:16:43.118Z,24.59
2019-04-26T00:17:43.130Z,24.66
2019-04-26T00:18:43.100Z,24.64
2019-04-26T00:19:43.081Z,24.63
2019-04-26T00:20:43.093Z,24.63
2019-04-26T00:21:43.089Z,24.60
2019-04-26T00:22:43.066Z,24.66
2019-04-26T00:23:43.051Z,24.66
2019-04-26T00:24:43.044Z,24.68
2019-04-26T00:25:43.025Z,24.67
2019-04-26T00:26:43.025Z,24.70
2019-04-26T00:27:43.003Z,24.70
2019-04-26T00:28:43.007Z,24.64
2019-04-26T00:29:43.000Z,24.63
2019-04-26T00:30:42.981Z,24.55
2019-04-26T00:31:42.970Z,24.66
2019-04-26T00:32:42.953Z,24.60
2019-04-26T00:33:42.943Z,24.64
2019-04-26T00:34:42.957Z,24.67
2019-04-26T00:35:47.658Z,24.64
2019-04-26T00:36:42.913Z,24.59
2019-04-26T00:37:42.904Z,24.63
2019-04-26T00:38:42.899Z,24.59
2019-04-26T00:39:42.874Z,24.60
2019-04-26T00:40:42.860Z,24.61
2019-04-26T00:41:42.853Z,24.60
2019-04-26T00:42:42.840Z,24.59
2019-04-26T00:43:42.832Z,24.61
2019-04-26T00:44:42.827Z,24.59
2019-04-26T00:45:42.843Z,24.61
2019-04-26T00:46:42.810Z,24.66
2019-04-26T00:47:42.800Z,24.74
2019-04-26T00:48:42.790Z,24.55
2019-04-26T00:49:44.089Z,24.56
2019-04-26T00:50:42.750Z,24.66
2019-04-26T00:51:42.753Z,24.66
2019-04-26T00:52:42.803Z,24.51
2019-04-26T00:53:42.736Z,24.64
2019-04-26T00:54:42.730Z,24.56
2019-04-26T00:55:42.722Z,24.49
2019-04-26T00:56:42.696Z,24.60
2019-04-26T00:57:42.688Z,24.55
2019-04-26T00:58:42.672Z,24.52
2019-04-26T00:59:42.662Z,24.61
2019-04-26T01:00:42.677Z,24.49
2019-04-26T01:01:42.648Z,24.49
2019-04-26T01:02:42.637Z,24.51
2019-04-26T01:03:42.616Z,24.51
2019-04-26T01:04:42.608Z,24.56
2019-04-26T01:05:42.607Z,24.49
2019-04-26T01:06:42.588Z,24.48
2019-04-26T01:07:42.572Z,24.56
2019-04-26T01:08:42.557Z,24.51
2019-04-26T01:09:42.580Z,24.52
2019-04-26T01:10:42.553Z,24.56
2019-04-26T01:11:42.538Z,24.55
2019-04-26T01:12:42.564Z,24.45
2019-04-26T01:13:42.508Z,24.53
2019-04-26T01:14:42.501Z,24.56
2019-04-26T01:15:42.490Z,24.53
2019-04-26T01:16:42.482Z,24.51
2019-04-26T01:17:42.463Z,24.59
2019-04-26T01:18:42.476Z,24.45
2019-04-26T01:19:42.446Z,24.60
2019-04-26T01:20:42.436Z,24.59
2019-04-26T01:21:42.429Z,24.52
2019-04-26T01:22:42.413Z,24.56
2019-04-26T01:23:42.413Z,24.55
2019-04-26T01:24:42.433Z,24.49
2019-04-26T01:25:42.386Z,24.59
2019-04-26T01:26:42.371Z,24.52
2019-04-26T01:27:42.361Z,24.45
2019-04-26T01:28:42.349Z,24.48
2019-04-26T01:29:42.350Z,24.56
2019-04-26T01:30:42.328Z,24.53
2019-04-26T01:31:42.322Z,24.45
2019-04-26T01:32:42.322Z,24.49
2019-04-26T01:33:42.310Z,24.45
2019-04-26T01:34:42.275Z,24.45
2019-04-26T01:35:42.294Z,24.45
2019-04-26T01:36:42.261Z,24.49
2019-04-26T01:37:42.266Z,24.52
2019-04-26T01:38:42.236Z,24.60
2019-04-26T01:39:42.233Z,24.53
2019-04-26T01:40:42.222Z,24.52
2019-04-26T01:41:42.223Z,24.45
2019-04-26T01:42:42.199Z,24.46
2019-04-26T01:43:42.185Z,24.59
2019-04-26T01:44:42.177Z,24.48
2019-04-26T01:45:42.157Z,24.49
2019-04-26T01:46:42.173Z,24.52
2019-04-26T01:47:42.151Z,24.60
2019-04-26T01:48:42.121Z,24.52
2019-04-26T01:49:42.116Z,24.53
2019-04-26T01:50:42.122Z,24.51
2019-04-26T01:51:42.115Z,24.52
2019-04-26T01:52:42.100Z,24.51
2019-04-26T01:53:42.072Z,24.60
2019-04-26T01:54:42.061Z,24.49
2019-04-26T01:55:42.050Z,24.51
2019-04-26T01:56:42.046Z,24.49
2019-04-26T01:57:42.034Z,24.48
2019-04-26T01:58:42.038Z,24.42
2019-04-26T01:59:42.059Z,24.45
2019-04-26T02:00:42.003Z,24.48
2019-04-26T02:01:41.996Z,24.55
2019-04-26T02:02:42.005Z,24.46
2019-04-26T02:03:41.981Z,24.49
2019-04-26T02:04:41.971Z,24.49
2019-04-26T02:05:41.942Z,24.46
2019-04-26T02:06:41.950Z,24.48
2019-04-26T02:07:41.939Z,24.51
2019-04-26T02:08:41.955Z,24.52
2019-04-26T02:09:41.996Z,24.49
2019-04-26T02:10:41.896Z,24.46
2019-04-26T02:11:41.889Z,24.48
2019-04-26T02:12:41.874Z,24.49
2019-04-26T02:13:41.861Z,24.41
2019-04-26T02:14:41.855Z,24.34
2019-04-26T02:15:41.883Z,24.48
2019-04-26T02:16:41.842Z,24.37
2019-04-26T02:17:41.825Z,24.44
2019-04-26T02:18:41.827Z,24.41
2019-04-26T02:19:41.807Z,24.51
2019-04-26T02:20:41.790Z,24.34
2019-04-26T02:21:41.787Z,24.44
2019-04-26T02:22:41.768Z,24.44
2019-04-26T02:23:41.755Z,24.45
2019-04-26T02:24:41.749Z,24.48
2019-04-26T02:25:41.730Z,24.48
2019-04-26T02:26:41.730Z,24.44
2019-04-26T02:27:41.709Z,24.41
2019-04-26T02:28:41.697Z,24.48
2019-04-26T02:29:41.707Z,24.48
2019-04-26T02:30:41.681Z,24.42
2019-04-26T02:31:41.682Z,24.42
2019-04-26T02:32:41.678Z,24.46
2019-04-26T02:33:41.662Z,24.45
2019-04-26T02:34:41.627Z,24.41
2019-04-26T02:35:41.635Z,24.45
2019-04-26T02:36:56.307Z,24.48
2019-04-26T02:37:41.613Z,24.44
2019-04-26T02:38:41.595Z,24.44
2019-04-26T02:39:41.591Z,24.45
2019-04-26T02:40:41.563Z,24.44
2019-04-26T02:41:41.559Z,24.46
2019-04-26T02:42:41.848Z,24.46
2019-04-26T02:43:41.531Z,24.37
2019-04-26T02:44:41.531Z,24.41
2019-04-26T02:45:41.517Z,24.44
2019-04-26T02:46:41.502Z,24.44
2019-04-26T02:47:41.502Z,24.36
2019-04-26T02:48:41.484Z,24.45
2019-04-26T02:49:41.489Z,24.44
2019-04-26T02:50:41.470Z,24.39
2019-04-26T02:51:41.474Z,24.37
2019-04-26T02:52:41.452Z,24.42
2019-04-26T02:53:41.440Z,24.45
2019-04-26T02:54:41.434Z,24.41
2019-04-26T02:55:42.584Z,24.39
2019-04-26T02:56:41.396Z,24.44
2019-04-26T02:57:41.397Z,24.41
2019-04-26T02:58:41.382Z,24.34
2019-04-26T02:59:41.417Z,24.41
2019-04-26T03:00:42.151Z,24.36
2019-04-26T03:01:41.349Z,24.39
2019-04-26T03:02:41.344Z,24.39
2019-04-26T03:03:41.325Z,24.39
2019-04-26T03:04:41.335Z,24.36
2019-04-26T03:05:41.309Z,24.39
2019-04-26T03:06:42.893Z,24.33
2019-04-26T03:07:42.759Z,24.37
2019-04-26T03:08:42.651Z,24.42
2019-04-26T03:09:43.020Z,24.31
2019-04-26T03:10:41.253Z,24.37
2019-04-26T03:11:41.260Z,24.37
2019-04-26T03:12:41.371Z,24.33
2019-04-26T03:13:41.215Z,24.34
2019-04-26T03:14:41.944Z,24.36
2019-04-26T03:15:42.573Z,24.30
2019-04-26T03:16:42.848Z,24.39
2019-04-26T03:17:41.209Z,24.29
2019-04-26T03:18:42.602Z,24.33
2019-04-26T03:19:41.161Z,24.34
2019-04-26T03:20:42.248Z,24.29
2019-04-26T03:21:41.156Z,24.34
2019-04-26T03:22:42.563Z,24.30
2019-04-26T03:23:56.642Z,24.27
2019-04-26T03:24:42.534Z,24.29
2019-04-26T03:25:42.228Z,24.30
2019-04-26T03:26:43.106Z,24.27
2019-04-26T03:27:43.083Z,24.30
2019-04-26T03:28:43.451Z,24.27
2019-04-26T03:29:42.039Z,24.33
2019-04-26T03:30:48.729Z,24.26
2019-04-26T03:31:51.949Z,24.34
2019-04-26T03:32:50.428Z,24.33
2019-04-26T03:33:49.980Z,24.31
2019-04-26T03:34:52.631Z,24.34
2019-04-26T03:35:54.890Z,24.31
2019-04-26T03:36:42.872Z,24.27
2019-04-26T03:37:42.669Z,24.29
2019-04-26T03:38:41.874Z,24.26
2019-04-26T03:39:42.877Z,24.27
2019-04-26T03:40:42.435Z,24.27
2019-04-26T03:41:42.458Z,24.33
2019-04-26T03:42:42.729Z,24.30
2019-04-26T03:43:42.573Z,24.29
2019-04-26T03:44:42.269Z,24.27
2019-04-26T03:45:42.573Z,24.27
2019-04-26T03:46:41.824Z,24.27
2019-04-26T03:47:43.688Z,24.26
2019-04-26T03:48:42.737Z,24.33
2019-04-26T03:49:41.988Z,24.26
2019-04-26T03:50:41.153Z,24.26
2019-04-26T03:51:41.603Z,24.31
2019-04-26T03:52:42.084Z,24.24
2019-04-26T03:53:42.422Z,24.24
2019-04-26T03:54:41.085Z,24.33
2019-04-26T03:55:43.275Z,24.23
2019-04-26T03:56:42.361Z,24.26
2019-04-26T03:57:42.858Z,24.26
2019-04-26T03:58:41.914Z,24.16
2019-04-26T03:59:42.173Z,24.21
2019-04-26T04:00:42.620Z,24.23
2019-04-26T04:01:41.459Z,24.34
2019-04-26T04:02:41.595Z,24.23
2019-04-26T04:03:43.524Z,24.23
2019-04-26T04:04:41.657Z,24.23
2019-04-26T04:05:42.031Z,24.26
2019-04-26T04:06:56.566Z,24.23
2019-04-26T04:07:46.019Z,24.23
2019-04-26T04:08:42.368Z,24.21
2019-04-26T04:09:41.429Z,24.21
2019-04-26T04:10:41.950Z,24.19
2019-04-26T04:11:42.310Z,24.19
2019-04-26T04:12:42.218Z,24.23
2019-04-26T04:13:43.675Z,24.24
2019-04-26T04:14:42.106Z,24.23
2019-04-26T04:15:41.999Z,24.23
2019-04-26T04:16:42.783Z,24.19
2019-04-26T04:17:43.254Z,24.19
2019-04-26T04:18:41.837Z,24.26
2019-04-26T04:19:42.114Z,24.21
2019-04-26T04:20:42.426Z,24.29
2019-04-26T04:21:41.391Z,24.15
2019-04-26T04:22:41.723Z,24.27
2019-04-26T04:23:41.828Z,24.23
2019-04-26T04:24:41.751Z,24.24
2019-04-26T04:25:42.125Z,24.26
2019-04-26T04:26:41.653Z,24.24
2019-04-26T04:27:41.956Z,24.16
2019-04-26T04:28:42.042Z,24.18
2019-04-26T04:29:47.150Z,24.23
2019-04-26T04:30:41.955Z,24.24
2019-04-26T04:31:41.740Z,24.19
2019-04-26T04:32:41.911Z,24.19
2019-04-26T04:33:41.334Z,24.16
2019-04-26T04:34:42.120Z,24.14
2019-04-26T04:35:42.241Z,24.24
2019-04-26T04:36:41.718Z,24.23
2019-04-26T04:38:01.778Z,24.26
2019-04-26T04:38:40.879Z,24.16
2019-04-26T04:39:42.064Z,24.27
2019-04-26T04:40:40.895Z,24.29
2019-04-26T04:41:41.111Z,24.21
2019-04-26T04:42:41.474Z,24.26
2019-04-26T04:43:41.995Z,24.19
2019-04-26T04:44:42.326Z,24.15
2019-04-26T04:45:40.452Z,24.26
2019-04-26T04:46:41.749Z,24.23
2019-04-26T04:47:41.354Z,24.26
2019-04-26T04:48:41.213Z,24.14
2019-04-26T04:49:42.416Z,24.26
2019-04-26T04:50:40.929Z,24.09
2019-04-26T04:51:40.866Z,24.15
2019-04-26T04:52:41.354Z,24.24
2019-04-26T04:53:41.410Z,24.14
2019-04-26T04:54:41.552Z,24.11
2019-04-26T04:55:42.823Z,24.21
2019-04-26T04:56:41.517Z,24.11
2019-04-26T04:57:40.099Z,24.15
2019-04-26T04:58:40.084Z,24.14
2019-04-26T04:59:40.081Z,24.14
2019-04-26T05:00:40.073Z,24.18
2019-04-26T05:01:40.051Z,24.11
2019-04-26T05:02:40.096Z,24.26
2019-04-26T05:03:40.024Z,24.11
2019-04-26T05:04:40.034Z,24.14
2019-04-26T05:05:40.012Z,24.19
2019-04-26T05:06:39.996Z,24.18
2019-04-26T05:07:39.982Z,24.11
2019-04-26T05:08:39.976Z,24.14
2019-04-26T05:09:39.975Z,24.12
2019-04-26T05:10:39.968Z,24.08
2019-04-26T05:11:39.953Z,24.12
2019-04-26T05:12:39.940Z,24.14
2019-04-26T05:13:39.911Z,24.14
2019-04-26T05:14:39.910Z,24.08
2019-04-26T05:15:39.916Z,24.15
2019-04-26T05:16:39.918Z,24.09
2019-04-26T05:17:39.886Z,24.14
2019-04-26T05:18:39.867Z,24.11
2019-04-26T05:19:39.862Z,24.12
2019-04-26T05:20:39.847Z,24.14
2019-04-26T05:21:39.832Z,24.02
2019-04-26T05:22:39.819Z,24.11
2019-04-26T05:23:39.833Z,24.14
2019-04-26T05:24:39.811Z,24.04
2019-04-26T05:25:40.499Z,24.12
2019-04-26T05:26:39.773Z,24.16
2019-04-26T05:27:39.845Z,24.08
2019-04-26T05:28:39.756Z,24.14
2019-04-26T05:29:39.781Z,24.09
2019-04-26T05:30:39.747Z,24.15
2019-04-26T05:31:39.721Z,24.12
2019-04-26T05:32:39.729Z,23.99
2019-04-26T05:33:39.688Z,24.09
2019-04-26T05:34:39.703Z,24.11
2019-04-26T05:35:39.684Z,24.06
2019-04-26T05:36:39.669Z,24.12
2019-04-26T05:37:39.671Z,24.02
2019-04-26T05:38:39.662Z,24.02
2019-04-26T05:39:39.643Z,24.14
2019-04-26T05:40:39.631Z,23.97
2019-04-26T05:41:39.629Z,24.11
2019-04-26T05:42:39.604Z,24.08
2019-04-26T05:43:39.590Z,24.05
2019-04-26T05:44:39.593Z,24.08
2019-04-26T05:45:40.654Z,24.12
2019-04-26T05:46:39.575Z,24.00
2019-04-26T05:47:39.573Z,23.97
2019-04-26T05:48:39.538Z,24.08
2019-04-26T05:49:39.534Z,24.12
2019-04-26T05:50:39.518Z,24.06
2019-04-26T05:51:39.507Z,24.14
2019-04-26T05:52:39.514Z,24.08
2019-04-26T05:53:39.505Z,24.08
2019-04-26T05:54:39.498Z,24.09
2019-04-26T05:55:39.754Z,24.08
2019-04-26T05:56:39.454Z,24.06
2019-04-26T05:57:39.441Z,24.06
2019-04-26T05:58:39.430Z,24.12
2019-04-26T05:59:39.440Z,24.11
2019-04-26T06:00:39.414Z,24.06
2019-04-26T06:01:39.397Z,24.04
2019-04-26T06:02:39.389Z,24.04
2019-04-26T06:03:39.377Z,24.14
2019-04-26T06:04:39.383Z,24.04
2019-04-26T06:05:39.368Z,23.99
2019-04-26T06:06:39.360Z,24.05
2019-04-26T06:07:39.400Z,24.05
2019-04-26T06:08:39.331Z,24.00
2019-04-26T06:09:39.341Z,24.05
2019-04-26T06:10:39.302Z,24.08
2019-04-26T06:11:39.286Z,24.08
2019-04-26T06:12:39.281Z,24.02
2019-04-26T06:13:39.289Z,24.06
2019-04-26T06:14:39.292Z,24.05
2019-04-26T06:15:39.266Z,24.00
2019-04-26T06:16:39.246Z,24.02
2019-04-26T06:17:39.220Z,24.02
2019-04-26T06:18:39.228Z,24.16
2019-04-26T06:19:39.209Z,24.02
2019-04-26T06:20:39.211Z,24.06
2019-04-26T06:21:39.179Z,24.02
2019-04-26T06:22:39.174Z,24.04
2019-04-26T06:23:39.164Z,24.05
2019-04-26T06:24:39.167Z,23.99
2019-04-26T06:25:39.139Z,23.99
2019-04-26T06:26:39.127Z,24.04
2019-04-26T06:27:39.117Z,23.99
2019-04-26T06:28:39.120Z,23.99
2019-04-26T06:29:39.100Z,23.97
2019-04-26T06:30:45.336Z,24.09
2019-04-26T06:31:39.071Z,23.99
2019-04-26T06:32:39.163Z,24.00
2019-04-26T06:33:39.073Z,24.00
2019-04-26T06:34:39.049Z,24.08
2019-04-26T06:35:39.099Z,24.08
2019-04-26T06:36:39.056Z,23.99
2019-04-26T06:37:38.997Z,23.97
2019-04-26T06:38:43.933Z,23.96
2019-04-26T06:39:38.981Z,24.05
2019-04-26T06:40:42.035Z,24.05
2019-04-26T06:41:38.965Z,24.02
2019-04-26T06:42:38.979Z,24.05
2019-04-26T06:43:38.960Z,24.06
2019-04-26T06:44:38.936Z,24.04
2019-04-26T06:45:38.929Z,23.99
2019-04-26T06:46:38.977Z,24.02
2019-04-26T06:47:38.904Z,24.00
2019-04-26T06:48:38.901Z,24.05
2019-04-26T06:49:38.888Z,23.97
2019-04-26T06:50:38.871Z,24.04
2019-04-26T06:51:38.878Z,24.00
2019-04-26T06:52:38.847Z,24.04
2019-04-26T06:53:38.845Z,24.00
2019-04-26T06:54:38.833Z,24.00
2019-04-26T06:55:38.819Z,24.04
2019-04-26T06:56:38.804Z,23.96
2019-04-26T06:57:38.788Z,24.02
2019-04-26T06:58:38.778Z,24.05
2019-04-26T06:59:38.769Z,24.02
2019-04-26T07:00:38.770Z,24.02
2019-04-26T07:01:38.755Z,24.05
2019-04-26T07:02:38.749Z,24.06
2019-04-26T07:03:38.733Z,23.97
2019-04-26T07:04:38.718Z,24.02
2019-04-26T07:05:38.712Z,23.99
2019-04-26T07:06:38.695Z,24.06
2019-04-26T07:07:38.705Z,24.02
2019-04-26T07:08:38.687Z,23.94
2019-04-26T07:09:38.666Z,23.97
2019-04-26T07:10:38.649Z,23.96
2019-04-26T07:11:38.643Z,23.93
2019-04-26T07:12:38.653Z,24.05
2019-04-26T07:13:38.626Z,24.05
2019-04-26T07:14:38.623Z,24.00
2019-04-26T07:15:38.603Z,24.00
2019-04-26T07:16:38.585Z,23.97
2019-04-26T07:17:38.596Z,24.00
2019-04-26T07:18:38.572Z,24.04
2019-04-26T07:19:38.566Z,23.92
2019-04-26T07:20:38.547Z,23.94
2019-04-26T07:21:38.566Z,24.02
2019-04-26T07:22:38.523Z,24.02
2019-04-26T07:23:38.515Z,23.97
2019-04-26T07:24:38.504Z,24.02
2019-04-26T07:25:38.523Z,24.02
2019-04-26T07:26:38.508Z,23.97
2019-04-26T07:27:38.567Z,23.92
2019-04-26T07:28:38.497Z,23.99
2019-04-26T07:29:38.460Z,23.99
2019-04-26T07:30:38.445Z,23.96
2019-04-26T07:31:38.418Z,23.93
2019-04-26T07:32:38.417Z,24.04
2019-04-26T07:33:38.546Z,23.94
2019-04-26T07:34:38.406Z,23.90
2019-04-26T07:35:38.462Z,23.93
2019-04-26T07:36:38.373Z,24.04
2019-04-26T07:37:38.432Z,23.94
2019-04-26T07:38:38.344Z,23.97
2019-04-26T07:39:38.339Z,23.97
2019-04-26T07:40:38.344Z,23.96
2019-04-26T07:41:38.320Z,23.94
2019-04-26T07:42:38.317Z,23.96
2019-04-26T07:43:38.324Z,23.96
2019-04-26T07:44:38.280Z,24.00
2019-04-26T07:45:38.295Z,23.97
2019-04-26T07:46:38.262Z,24.00
2019-04-26T07:47:38.253Z,23.99
2019-04-26T07:48:38.273Z,23.97
2019-04-26T07:49:38.247Z,23.93
2019-04-26T07:50:38.240Z,24.00
2019-04-26T07:51:38.215Z,23.94
2019-04-26T07:52:38.332Z,24.00
2019-04-26T07:53:38.209Z,23.99
2019-04-26T07:54:38.181Z,24.04
2019-04-26T07:55:38.171Z,23.93
2019-04-26T07:56:38.170Z,24.04
2019-04-26T07:57:38.143Z,23.94
2019-04-26T07:58:38.132Z,24.00
2019-04-26T07:59:38.172Z,23.94
2019-04-26T08:00:44.651Z,23.94
2019-04-26T08:01:38.116Z,23.97
2019-04-26T08:02:38.116Z,23.93
2019-04-26T08:03:38.077Z,23.93
2019-04-26T08:04:38.060Z,23.97
2019-04-26T08:05:38.058Z,23.99
2019-04-26T08:06:38.061Z,23.94
2019-04-26T08:07:38.059Z,23.94
2019-04-26T08:08:38.059Z,23.97
2019-04-26T08:09:38.014Z,23.90
2019-04-26T08:10:38.068Z,23.93
2019-04-26T08:11:37.997Z,24.02
2019-04-26T08:12:37.993Z,23.96
2019-04-26T08:13:37.979Z,23.93
2019-04-26T08:14:38.005Z,23.94
2019-04-26T08:15:37.959Z,23.93
2019-04-26T08:16:37.976Z,23.94
2019-04-26T08:17:37.931Z,23.94
2019-04-26T08:18:37.920Z,23.90
2019-04-26T08:19:37.905Z,23.99
2019-04-26T08:20:37.912Z,23.93
2019-04-26T08:21:37.914Z,23.97
2019-04-26T08:22:37.871Z,23.94
2019-04-26T08:23:41.675Z,23.92
2019-04-26T08:24:37.889Z,23.93
2019-04-26T08:25:37.836Z,23.94
2019-04-26T08:26:37.847Z,23.97
2019-04-26T08:27:37.845Z,23.87
2019-04-26T08:28:37.811Z,23.92
2019-04-26T08:29:37.813Z,23.89
2019-04-26T08:30:40.592Z,24.00
2019-04-26T08:31:37.816Z,23.93
2019-04-26T08:32:37.767Z,23.89
2019-04-26T08:33:40.569Z,23.99
2019-04-26T08:34:37.739Z,23.97
2019-04-26T08:35:37.747Z,23.94
2019-04-26T08:36:37.725Z,24.00
2019-04-26T08:37:38.003Z,23.92
2019-04-26T08:38:37.694Z,23.92
2019-04-26T08:39:45.502Z,23.97
2019-04-26T08:40:37.689Z,24.00
2019-04-26T08:41:39.208Z,23.97
2019-04-26T08:42:37.673Z,23.96
2019-04-26T08:43:37.657Z,23.92
2019-04-26T08:44:37.642Z,23.94
2019-04-26T08:45:40.347Z,23.94
2019-04-26T08:46:37.632Z,23.96
2019-04-26T08:47:37.608Z,23.92
2019-04-26T08:48:37.591Z,23.92
2019-04-26T08:49:39.172Z,23.90
2019-04-26T08:50:37.594Z,23.90
2019-04-26T08:51:37.603Z,23.92
2019-04-26T08:52:37.556Z,23.90
2019-04-26T08:53:37.524Z,23.92
2019-04-26T08:54:37.520Z,23.90
2019-04-26T08:55:37.523Z,23.84
2019-04-26T08:56:37.509Z,23.94
2019-04-26T08:57:37.511Z,23.96
2019-04-26T08:58:37.514Z,23.92
2019-04-26T08:59:37.497Z,23.93
2019-04-26T09:00:37.459Z,23.99
2019-04-26T09:01:37.502Z,23.92
2019-04-26T09:02:37.465Z,23.84
2019-04-26T09:03:37.435Z,23.90
2019-04-26T09:04:37.432Z,23.90
2019-04-26T09:05:37.417Z,23.92
2019-04-26T09:06:37.444Z,23.93
2019-04-26T09:07:37.392Z,23.87
2019-04-26T09:08:39.231Z,23.94
2019-04-26T09:09:37.370Z,23.94
2019-04-26T09:10:39.364Z,23.89
2019-04-26T09:11:37.344Z,23.93
2019-04-26T09:12:37.343Z,23.90
2019-04-26T09:13:37.344Z,23.92
2019-04-26T09:14:37.353Z,23.92
2019-04-26T09:15:37.334Z,23.90
2019-04-26T09:16:49.634Z,23.96
2019-04-26T09:17:37.357Z,23.94
2019-04-26T09:18:43.373Z,23.94
2019-04-26T09:19:37.266Z,23.93
2019-04-26T09:20:38.596Z,23.96
2019-04-26T09:21:37.242Z,23.92
2019-04-26T09:22:37.221Z,24.00
2019-04-26T09:23:40.389Z,23.94
2019-04-26T09:24:37.197Z,23.97
2019-04-26T09:25:39.334Z,23.94
2019-04-26T09:26:37.239Z,23.96
2019-04-26T09:27:37.170Z,23.92
2019-04-26T09:28:37.189Z,23.93
2019-04-26T09:29:37.144Z,23.97
2019-04-26T09:30:38.513Z,23.94
2019-04-26T09:31:37.169Z,23.92
2019-04-26T09:32:37.116Z,23.92
2019-04-26T09:33:37.488Z,24.04
2019-04-26T09:34:41.284Z,23.97
2019-04-26T09:35:37.084Z,23.96
2019-04-26T09:36:37.073Z,23.93
2019-04-26T09:37:37.115Z,24.00
2019-04-26T09:38:37.068Z,23.90
2019-04-26T09:39:41.637Z,23.96
2019-04-26T09:40:37.057Z,23.90
2019-04-26T09:41:37.027Z,24.05
2019-04-26T09:42:39.400Z,24.04
2019-04-26T09:43:37.016Z,23.97
2019-04-26T09:44:37.582Z,23.96
2019-04-26T09:45:36.976Z,23.94
2019-04-26T09:46:36.957Z,23.94
2019-04-26T09:47:36.976Z,24.00
2019-04-26T09:48:36.958Z,23.93
2019-04-26T09:49:37.320Z,24.02
2019-04-26T09:50:36.979Z,24.04
2019-04-26T09:51:39.157Z,24.05
2019-04-26T09:52:36.961Z,24.02
2019-04-26T09:53:39.525Z,24.02
2019-04-26T09:54:36.881Z,24.02
2019-04-26T09:55:37.156Z,24.00
2019-04-26T09:56:36.912Z,23.96
2019-04-26T09:57:36.886Z,23.96
2019-04-26T09:58:36.829Z,24.05
2019-04-26T09:59:39.998Z,24.00
2019-04-26T10:00:36.829Z,24.00
2019-04-26T10:01:36.871Z,23.90
2019-04-26T10:02:36.791Z,23.97
2019-04-26T10:03:36.785Z,24.05
2019-04-26T10:04:36.778Z,23.97
2019-04-26T10:05:36.763Z,24.00
2019-04-26T10:06:36.755Z,23.94
2019-04-26T10:07:37.498Z,24.00
2019-04-26T10:08:36.747Z,23.99
2019-04-26T10:09:36.715Z,23.99
2019-04-26T10:10:36.731Z,23.99
2019-04-26T10:11:39.551Z,24.02
2019-04-26T10:12:36.695Z,24.02
2019-04-26T10:13:36.687Z,24.02
2019-04-26T10:14:36.683Z,24.00
2019-04-26T10:15:38.893Z,24.02
2019-04-26T10:16:37.760Z,23.99
2019-04-26T10:17:36.630Z,24.02
2019-04-26T10:18:36.625Z,24.00
2019-04-26T10:19:36.609Z,24.02
2019-04-26T10:20:36.599Z,23.97
2019-04-26T10:21:36.596Z,24.09
2019-04-26T10:22:37.270Z,24.00
2019-04-26T10:23:36.572Z,24.05
2019-04-26T10:24:36.563Z,24.00
2019-04-26T10:25:36.551Z,23.97
2019-04-26T10:26:36.788Z,24.00
2019-04-26T10:27:40.768Z,23.96
2019-04-26T10:28:36.577Z,24.00
2019-04-26T10:29:36.495Z,24.02
2019-04-26T10:30:38.301Z,24.00
2019-04-26T10:31:36.559Z,24.02
2019-04-26T10:32:36.478Z,23.97
2019-04-26T10:33:37.673Z,24.02
2019-04-26T10:34:36.460Z,23.99
2019-04-26T10:35:36.428Z,23.99
2019-04-26T10:36:36.423Z,24.00
2019-04-26T10:37:39.744Z,24.05
2019-04-26T10:38:36.401Z,24.00
2019-04-26T10:39:37.038Z,23.96
2019-04-26T10:40:36.383Z,23.99
2019-04-26T10:41:36.434Z,24.00
2019-04-26T10:42:36.358Z,24.00
2019-04-26T10:43:36.408Z,24.02
2019-04-26T10:44:39.916Z,23.99
2019-04-26T10:45:36.334Z,24.06
2019-04-26T10:46:36.309Z,23.96
2019-04-26T10:47:38.367Z,24.00
2019-04-26T10:48:36.313Z,24.04
2019-04-26T10:49:36.284Z,24.00
2019-04-26T10:50:36.269Z,23.99
2019-04-26T10:51:38.726Z,24.02
2019-04-26T10:52:36.252Z,24.04
2019-04-26T10:53:36.272Z,24.05
2019-04-26T10:54:36.873Z,24.04
2019-04-26T10:55:36.207Z,24.04
2019-04-26T10:56:36.209Z,24.04
2019-04-26T10:57:36.212Z,24.06
2019-04-26T10:58:37.753Z,24.00
2019-04-26T10:59:39.738Z,24.12
2019-04-26T11:00:36.164Z,24.00
2019-04-26T11:01:36.153Z,24.16
2019-04-26T11:02:36.145Z,24.09
2019-04-26T11:03:36.139Z,24.14
2019-04-26T11:04:37.297Z,24.08
2019-04-26T11:05:36.131Z,24.14
2019-04-26T11:06:36.094Z,24.14
2019-04-26T11:07:36.141Z,24.16
2019-04-26T11:08:36.074Z,24.09
2019-04-26T11:09:36.073Z,24.08
2019-04-26T11:10:47.885Z,24.12
2019-04-26T11:11:36.038Z,24.12
2019-04-26T11:12:36.042Z,24.14
2019-04-26T11:13:36.040Z,24.11
2019-04-26T11:14:36.014Z,24.11
2019-04-26T11:15:36.018Z,24.18
2019-04-26T11:16:37.167Z,24.12
2019-04-26T11:17:35.970Z,24.12
2019-04-26T11:18:35.967Z,24.08
2019-04-26T11:19:36.638Z,24.14
2019-04-26T11:20:35.947Z,24.06
2019-04-26T11:21:35.929Z,24.14
2019-04-26T11:22:37.624Z,24.11
2019-04-26T11:23:36.614Z,24.14
2019-04-26T11:24:35.907Z,24.15
2019-04-26T11:25:35.897Z,24.15
2019-04-26T11:26:36.246Z,24.18
2019-04-26T11:27:35.888Z,24.14
2019-04-26T11:28:35.882Z,24.18
2019-04-26T11:29:35.874Z,24.12
2019-04-26T11:30:35.846Z,24.08
2019-04-26T11:31:35.837Z,24.12
2019-04-26T11:32:36.842Z,24.16
2019-04-26T11:33:44.729Z,24.12
2019-04-26T11:34:35.837Z,24.08
2019-04-26T11:35:35.891Z,24.09
2019-04-26T11:36:37.601Z,24.15
2019-04-26T11:37:35.773Z,24.16
2019-04-26T11:38:35.783Z,24.12
2019-04-26T11:39:36.539Z,24.12
2019-04-26T11:40:35.744Z,24.12
2019-04-26T11:41:37.540Z,24.11
2019-04-26T11:42:35.699Z,24.15
2019-04-26T11:43:35.727Z,24.09
2019-04-26T11:44:35.689Z,24.11
2019-04-26T11:45:35.676Z,24.09
2019-04-26T11:46:44.539Z,24.18
2019-04-26T11:47:37.070Z,24.12
2019-04-26T11:48:35.664Z,24.14
2019-04-26T11:49:37.337Z,24.14
2019-04-26T11:50:35.624Z,24.16
2019-04-26T11:51:35.637Z,24.18
2019-04-26T11:52:37.215Z,24.18
2019-04-26T11:53:35.614Z,24.11
2019-04-26T11:54:35.600Z,24.18
2019-04-26T11:55:35.611Z,24.15
2019-04-26T11:56:37.587Z,24.26
2019-04-26T11:57:35.573Z,24.11
2019-04-26T11:58:35.540Z,24.24
2019-04-26T11:59:35.526Z,24.15
2019-04-26T12:00:35.525Z,24.16
2019-04-26T12:01:36.672Z,24.29
2019-04-26T12:02:35.518Z,24.27
2019-04-26T12:03:35.492Z,24.18
2019-04-26T12:04:35.470Z,24.26
2019-04-26T12:05:35.473Z,24.18
2019-04-26T12:06:35.453Z,24.18
2019-04-26T12:07:35.447Z,24.23
2019-04-26T12:08:35.431Z,24.23
2019-04-26T12:09:35.415Z,24.24
2019-04-26T12:10:35.421Z,24.23
2019-04-26T12:11:35.404Z,24.21
2019-04-26T12:12:35.397Z,24.26
2019-04-26T12:13:35.394Z,24.29
2019-04-26T12:14:35.360Z,24.34
2019-04-26T12:15:39.148Z,24.29
2019-04-26T12:16:47.025Z,24.30
2019-04-26T12:17:36.755Z,24.33
2019-04-26T12:18:35.325Z,24.27
2019-04-26T12:19:35.315Z,24.24
2019-04-26T12:20:35.315Z,24.24
2019-04-26T12:21:35.310Z,24.33
2019-04-26T12:22:35.276Z,24.31
2019-04-26T12:23:35.275Z,24.31
2019-04-26T12:24:35.281Z,24.21
2019-04-26T12:25:38.776Z,24.26
2019-04-26T12:26:42.911Z,24.23
2019-04-26T12:27:35.329Z,24.30
2019-04-26T12:28:36.259Z,24.24
2019-04-26T12:29:35.231Z,24.24
2019-04-26T12:30:35.184Z,24.24
2019-04-26T12:31:35.174Z,24.24
2019-04-26T12:32:35.209Z,24.23
2019-04-26T12:33:39.178Z,24.18
2019-04-26T12:34:35.155Z,24.26
2019-04-26T12:35:35.140Z,24.23
2019-04-26T12:36:35.128Z,24.24
2019-04-26T12:37:35.129Z,24.23
2019-04-26T12:38:35.110Z,24.19
2019-04-26T12:39:36.625Z,24.24
2019-04-26T12:40:35.082Z,24.26
2019-04-26T12:41:40.265Z,24.24
2019-04-26T12:42:35.066Z,24.26
2019-04-26T12:43:35.065Z,24.23
2019-04-26T12:44:36.837Z,24.26
2019-04-26T12:45:35.030Z,24.26
2019-04-26T12:46:35.025Z,24.23
2019-04-26T12:47:38.685Z,24.29
2019-04-26T12:48:35.060Z,24.26
2019-04-26T12:49:35.513Z,24.33
2019-04-26T12:50:37.647Z,24.29
2019-04-26T12:51:34.960Z,24.29
2019-04-26T12:52:37.368Z,24.30